createdAt,value
2023-04-28T00:01:21.936Z,101058.31
2023-04-28T00:04:25.043Z,101060.19
2023-04-28T00:07:27.926Z,101062.25
2023-04-28T00:10:32.942Z,101067.06
2023-04-28T00:13:35.258Z,101060.03
2023-04-28T00:16:37.575Z,101057.53
2023-04-28T00:19:40.340Z,100995.03
2023-04-28T00:22:42.907Z,101062.22
2023-04-28T00:25:45.169Z,101059.69
2023-04-28T00:28:47.454Z,101056.19
2023-04-28T00:31:49.904Z,101067.28
2023-04-28T00:34:53.532Z,101056.03
2023-04-28T00:37:56.067Z,101063.88
2023-04-28T00:40:58.488Z,101065.03
2023-04-28T00:44:01.075Z,101076.34
2023-04-28T00:47:04.797Z,101079.97
2023-04-28T00:50:08.380Z,101075.56
2023-04-28T00:53:12.108Z,101075.91
2023-04-28T00:56:14.976Z,101072.53
2023-04-28T00:59:17.704Z,101076.16
2023-04-28T01:02:20.199Z,101071.50
2023-04-28T01:05:24.853Z,101070.09
2023-04-28T01:08:34.536Z,101074.88
2023-04-28T01:11:38.254Z,101064.53
2023-04-28T01:14:46.090Z,101065.81
2023-04-28T01:17:48.943Z,101074.13
2023-04-28T01:20:51.883Z,101072.28
2023-04-28T01:23:56.315Z,101064.00
2023-04-28T01:26:58.788Z,101071.50
2023-04-28T01:30:01.182Z,101073.78
2023-04-28T01:33:04.315Z,101070.94
2023-04-28T01:36:07.159Z,101073.88
2023-04-28T01:39:09.556Z,101080.84
2023-04-28T01:42:12.140Z,101076.94
2023-04-28T01:45:14.532Z,101081.84
2023-04-28T01:48:18.351Z,101072.72
2023-04-28T01:51:22.065Z,101084.00
2023-04-28T01:54:24.483Z,101074.22
2023-04-28T01:57:29.148Z,101082.69
2023-04-28T02:00:32.962Z,101081.88
2023-04-28T02:03:35.587Z,101069.78
2023-04-28T02:06:39.150Z,101075.59
2023-04-28T02:09:41.495Z,101055.69
2023-04-28T02:12:43.910Z,101073.38
2023-04-28T02:15:46.648Z,101070.69
2023-04-28T02:18:49.103Z,101072.34
2023-04-28T02:21:51.778Z,101070.69
2023-04-28T02:24:54.166Z,101076.88
2023-04-28T02:27:57.476Z,101073.53
2023-04-28T02:31:10.754Z,101068.75
2023-04-28T02:34:13.195Z,101070.03
2023-04-28T02:37:15.565Z,101075.03
2023-04-28T02:40:18.014Z,101077.72
2023-04-28T02:43:20.369Z,101078.19
2023-04-28T02:46:22.689Z,101078.84
2023-04-28T02:49:25.007Z,101075.34
2023-04-28T02:52:27.483Z,101074.84
2023-04-28T02:55:29.889Z,101087.38
2023-04-28T02:58:32.244Z,101087.63
2023-04-28T03:01:34.768Z,101075.41
2023-04-28T03:04:37.430Z,101086.78
2023-04-28T03:07:40.013Z,101070.44
2023-04-28T03:10:42.376Z,101067.09
2023-04-28T03:13:44.654Z,101072.09
2023-04-28T03:16:47.119Z,101075.97
2023-04-28T03:19:50.060Z,101080.94
2023-04-28T03:22:52.361Z,101075.81
2023-04-28T03:25:55.649Z,101076.47
2023-04-28T03:29:00.339Z,101070.16
2023-04-28T03:32:02.746Z,101078.09
2023-04-28T03:35:05.657Z,101073.16
2023-04-28T03:38:08.082Z,101073.34
2023-04-28T03:41:11.053Z,101079.84
2023-04-28T03:44:42.739Z,101076.50
2023-04-28T03:47:46.736Z,101088.16
2023-04-28T03:50:49.130Z,101085.25
2023-04-28T03:53:51.790Z,101085.66
2023-04-28T03:56:54.364Z,101083.50
2023-04-28T03:59:56.738Z,101089.78
2023-04-28T04:02:59.341Z,101094.75
2023-04-28T04:06:02.051Z,101106.16
2023-04-28T04:09:04.816Z,101101.53
2023-04-28T04:12:08.635Z,101105.06
2023-04-28T04:15:11.352Z,101100.75
2023-04-28T04:18:15.043Z,101107.94
2023-04-28T04:21:41.172Z,101111.13
2023-04-28T04:24:43.593Z,101110.94
2023-04-28T04:27:46.216Z,101113.03
2023-04-28T04:30:48.807Z,101101.97
2023-04-28T04:33:51.890Z,101103.13
2023-04-28T04:36:55.989Z,101106.66
2023-04-28T04:39:58.518Z,101114.91
2023-04-28T04:43:01.816Z,101107.66
2023-04-28T04:46:12.379Z,101113.97
2023-04-28T04:49:14.766Z,101113.97
2023-04-28T04:52:17.110Z,101088.72
2023-04-28T04:55:21.090Z,101092.03
2023-04-28T04:58:23.768Z,101109.13
2023-04-28T05:01:25.998Z,101108.69
2023-04-28T05:04:28.500Z,101111.72
2023-04-28T05:07:31.217Z,101105.19
2023-04-28T05:10:34.067Z,101104.25
2023-04-28T05:13:39.432Z,101105.56
2023-04-28T05:16:43.042Z,101105.19
2023-04-28T05:19:52.253Z,101115.47
2023-04-28T05:22:55.125Z,101106.34
2023-04-28T05:25:57.733Z,101113.22
2023-04-28T05:29:01.092Z,101116.44
2023-04-28T05:32:03.551Z,101103.19
2023-04-28T05:35:07.130Z,101112.25
2023-04-28T05:38:09.971Z,101107.19
2023-04-28T05:41:12.427Z,101112.63
2023-04-28T05:44:16.030Z,101116.88
2023-04-28T05:47:18.481Z,101110.47
2023-04-28T05:50:21.033Z,101123.25
2023-04-28T05:53:23.472Z,101114.22
2023-04-28T05:56:27.276Z,101119.44
2023-04-28T05:59:31.578Z,101121.63
2023-04-28T06:02:34.224Z,101113.63
2023-04-28T06:05:39.174Z,101111.00
2023-04-28T06:08:42.421Z,101113.78
2023-04-28T06:11:44.684Z,101120.28
2023-04-28T06:14:47.094Z,101106.50
2023-04-28T06:17:49.604Z,101117.06
2023-04-28T06:20:52.569Z,101112.72
2023-04-28T06:23:55.930Z,101117.13
2023-04-28T06:26:58.290Z,101116.63
2023-04-28T06:30:01.834Z,101107.50
2023-04-28T06:33:05.383Z,101115.41
2023-04-28T06:36:08.671Z,101106.06
2023-04-28T06:39:11.061Z,101111.38
2023-04-28T06:42:13.453Z,101106.56
2023-04-28T06:45:18.334Z,101105.00
2023-04-28T06:48:20.706Z,101112.22
2023-04-28T06:51:23.098Z,101105.44
2023-04-28T06:54:25.753Z,101101.34
2023-04-28T06:57:28.140Z,101107.56
2023-04-28T07:00:30.649Z,101101.06
2023-04-28T07:03:33.224Z,101101.72
2023-04-28T07:06:35.956Z,101106.09
2023-04-28T07:09:38.414Z,101098.56
2023-04-28T07:12:41.153Z,101106.59
2023-04-28T07:15:43.562Z,101102.16
2023-04-28T07:18:46.350Z,101105.84
2023-04-28T07:21:48.727Z,101088.75
2023-04-28T07:24:51.407Z,101095.47
2023-04-28T07:27:54.424Z,101094.53
2023-04-28T07:30:57.622Z,101085.66
2023-04-28T07:33:59.962Z,101073.28
2023-04-28T07:37:03.184Z,101081.53
2023-04-28T07:40:07.184Z,101070.81
2023-04-28T07:43:09.504Z,101075.53
2023-04-28T07:46:13.405Z,101066.00
2023-04-28T07:49:16.034Z,101040.81
2023-04-28T07:52:18.420Z,101060.78
2023-04-28T07:55:20.802Z,101058.72
2023-04-28T07:58:23.276Z,101058.69
2023-04-28T08:01:25.639Z,101062.38
2023-04-28T08:04:28.270Z,101052.03
2023-04-28T08:07:31.215Z,101066.72
2023-04-28T08:10:33.611Z,101060.28
2023-04-28T08:13:36.074Z,101049.34
2023-04-28T08:16:40.576Z,101047.56
2023-04-28T08:19:45.074Z,101054.34
2023-04-28T08:22:47.802Z,101064.38
2023-04-28T08:25:51.063Z,101042.19
2023-04-28T08:28:53.853Z,101056.63
2023-04-28T08:31:56.220Z,101047.41
2023-04-28T08:34:58.694Z,101055.38
2023-04-28T08:38:01.113Z,101045.59
2023-04-28T08:41:05.423Z,101047.25
2023-04-28T08:44:11.832Z,101040.16
2023-04-28T08:47:14.931Z,101042.00
2023-04-28T08:50:21.859Z,101047.78
2023-04-28T08:53:26.766Z,101039.88
2023-04-28T08:56:33.884Z,101047.41
2023-04-28T08:59:39.836Z,101035.50
2023-04-28T09:02:42.915Z,101033.03
2023-04-28T09:05:46.090Z,101033.00
2023-04-28T09:08:48.478Z,101034.41
2023-04-28T09:12:01.189Z,101034.69
2023-04-28T09:15:09.306Z,101035.09
2023-04-28T09:18:15.764Z,101040.41
2023-04-28T09:21:18.072Z,101035.75
2023-04-28T09:24:36.227Z,101037.16
2023-04-28T09:27:38.625Z,101039.03
2023-04-28T09:30:41.310Z,101025.34
2023-04-28T09:33:58.441Z,101029.78
2023-04-28T09:37:00.786Z,101015.25
2023-04-28T09:40:11.097Z,101014.19
2023-04-28T09:43:24.626Z,101014.94
2023-04-28T09:46:30.209Z,101010.22
2023-04-28T09:49:32.794Z,101018.41
2023-04-28T09:52:35.245Z,101006.56
2023-04-28T09:55:38.049Z,101007.03
2023-04-28T09:58:41.719Z,100999.56
2023-04-28T10:01:44.869Z,101002.56
2023-04-28T10:04:49.604Z,101002.69
2023-04-28T10:07:54.178Z,100990.84
2023-04-28T10:10:57.079Z,100994.94
2023-04-28T10:13:59.777Z,100976.75
2023-04-28T10:17:03.516Z,100973.19
2023-04-28T10:20:06.606Z,100981.03
2023-04-28T10:23:09.442Z,100972.06
2023-04-28T10:26:14.204Z,100980.69
2023-04-28T10:29:16.961Z,100970.59
2023-04-28T10:32:21.865Z,100981.09
2023-04-28T10:35:37.559Z,100975.94
2023-04-28T10:39:09.836Z,100976.47
2023-04-28T10:42:53.868Z,100971.16
2023-04-28T10:45:57.888Z,100967.59
2023-04-28T10:49:00.626Z,100974.34
2023-04-28T10:52:29.069Z,100961.13
2023-04-28T10:55:40.308Z,100957.00
2023-04-28T10:58:46.194Z,100952.22
2023-04-28T11:01:48.791Z,100954.31
2023-04-28T11:05:13.282Z,100955.94
2023-04-28T11:08:31.204Z,100943.88
2023-04-28T11:11:39.126Z,100942.53
2023-04-28T11:14:41.623Z,100936.03
2023-04-28T11:17:44.508Z,100941.16
2023-04-28T11:20:50.542Z,100936.56
2023-04-28T11:23:53.403Z,100941.56
2023-04-28T11:26:56.795Z,100938.63
2023-04-28T11:29:59.933Z,100939.91
2023-04-28T11:33:03.621Z,100935.16
2023-04-28T11:36:07.495Z,100939.81
2023-04-28T11:39:11.476Z,100960.19
2023-04-28T11:42:14.372Z,100945.09
2023-04-28T11:45:16.772Z,100944.44
2023-04-28T11:48:22.662Z,100939.34
2023-04-28T11:51:33.177Z,100928.34
2023-04-28T11:54:36.057Z,100927.59
2023-04-28T11:57:38.535Z,100921.78
2023-04-28T12:00:41.225Z,100907.63
2023-04-28T12:03:47.130Z,100929.28
2023-04-28T12:07:03.122Z,100923.53
2023-04-28T12:10:14.179Z,100923.63
2023-04-28T12:13:17.289Z,100921.59
2023-04-28T12:16:39.384Z,100923.25
2023-04-28T12:19:45.897Z,100919.41
2023-04-28T12:22:50.685Z,100914.44
2023-04-28T12:25:53.613Z,100904.25
2023-04-28T12:28:56.063Z,100899.44
2023-04-28T12:31:58.753Z,100900.50
2023-04-28T12:35:01.088Z,100908.53
2023-04-28T12:38:03.693Z,100901.19
2023-04-28T12:41:06.046Z,100888.13
2023-04-28T12:44:08.490Z,100893.09
2023-04-28T12:47:13.587Z,100887.41
2023-04-28T12:50:16.177Z,100887.72
2023-04-28T12:53:18.714Z,100885.97
2023-04-28T12:56:21.132Z,100863.88
2023-04-28T12:59:24.321Z,100875.81
2023-04-28T13:02:26.770Z,100871.38
2023-04-28T13:05:29.394Z,100859.50
2023-04-28T13:08:34.224Z,100864.22
2023-04-28T13:11:36.638Z,100859.91
2023-04-28T13:14:39.175Z,100843.91
2023-04-28T13:17:41.630Z,100842.66
2023-04-28T13:20:44.136Z,100840.44
2023-04-28T13:23:46.580Z,100850.50
2023-04-28T13:26:49.187Z,100848.00
2023-04-28T13:29:51.868Z,100838.13
2023-04-28T13:32:56.776Z,100842.06
2023-04-28T13:35:59.798Z,100833.34
2023-04-28T13:39:02.735Z,100822.72
2023-04-28T13:42:06.752Z,100811.59
2023-04-28T13:45:09.324Z,100811.75
2023-04-28T13:48:12.780Z,100813.88
2023-04-28T13:51:15.188Z,100792.94
2023-04-28T13:54:18.105Z,100723.91
2023-04-28T13:57:20.548Z,100797.72
2023-04-28T14:00:24.929Z,100800.47
2023-04-28T14:03:27.949Z,100803.56
2023-04-28T14:06:32.923Z,100796.97
2023-04-28T14:09:36.098Z,100793.47
2023-04-28T14:12:38.765Z,100790.72
2023-04-28T14:15:51.292Z,100784.28
2023-04-28T14:19:00.586Z,100780.78
2023-04-28T14:22:03.390Z,100781.34
2023-04-28T14:25:06.162Z,100760.53
2023-04-28T14:28:08.554Z,100782.00
2023-04-28T14:31:11.070Z,100777.78
2023-04-28T14:34:13.503Z,100766.69
2023-04-28T14:37:16.543Z,100768.72
2023-04-28T14:40:19.021Z,100771.31
2023-04-28T14:43:21.944Z,100757.38
2023-04-28T14:46:24.493Z,100757.03
2023-04-28T14:49:27.799Z,100742.59
2023-04-28T14:52:32.930Z,100752.00
2023-04-28T14:55:35.684Z,100739.94
2023-04-28T14:58:38.452Z,100742.97
2023-04-28T15:01:41.586Z,100744.78
2023-04-28T15:04:44.722Z,100741.31
2023-04-28T15:07:47.207Z,100730.13
2023-04-28T15:10:49.664Z,100740.03
2023-04-28T15:13:52.091Z,100736.47
2023-04-28T15:16:54.642Z,100733.56
2023-04-28T15:19:57.566Z,100728.50
2023-04-28T15:23:00.868Z,100725.31
2023-04-28T15:26:03.776Z,100720.34
2023-04-28T15:29:06.527Z,100721.59
2023-04-28T15:32:08.957Z,100697.97
2023-04-28T15:35:12.294Z,100712.88
2023-04-28T15:38:14.689Z,100702.13
2023-04-28T15:41:17.197Z,100692.69
2023-04-28T15:44:19.948Z,100710.56
2023-04-28T15:47:22.750Z,100708.91
2023-04-28T15:50:25.150Z,100698.09
2023-04-28T15:53:27.622Z,100696.56
2023-04-28T15:56:31.110Z,100704.63
2023-04-28T15:59:33.746Z,100699.13
2023-04-28T16:02:36.989Z,100697.06
2023-04-28T16:05:39.584Z,100701.63
2023-04-28T16:08:42.092Z,100685.00
2023-04-28T16:11:44.690Z,100692.84
2023-04-28T16:14:51.460Z,100698.59
2023-04-28T16:17:54.329Z,100693.41
2023-04-28T16:20:56.787Z,100689.25
2023-04-28T16:24:00.652Z,100689.38
2023-04-28T16:27:03.857Z,100683.19
2023-04-28T16:30:07.527Z,100685.88
2023-04-28T16:33:10.104Z,100681.41
2023-04-28T16:36:12.487Z,100680.00
2023-04-28T16:39:15.811Z,100674.88
2023-04-28T16:42:18.485Z,100656.53
2023-04-28T16:45:20.975Z,100672.88
2023-04-28T16:48:23.875Z,100660.16
2023-04-28T16:51:28.309Z,100666.81
2023-04-28T16:54:30.917Z,100671.13
2023-04-28T16:57:33.324Z,100666.34
2023-04-28T17:00:36.082Z,100666.66
2023-04-28T17:03:41.925Z,100654.97
2023-04-28T17:06:45.285Z,100656.38
2023-04-28T17:09:48.278Z,100654.75
2023-04-28T17:12:50.849Z,100650.97
2023-04-28T17:15:57.941Z,100658.38
2023-04-28T17:19:01.411Z,100640.94
2023-04-28T17:22:04.180Z,100655.97
2023-04-28T17:25:07.013Z,100643.69
2023-04-28T17:28:09.374Z,100647.56
2023-04-28T17:31:13.678Z,100655.00
2023-04-28T17:34:16.153Z,100648.75
2023-04-28T17:37:18.442Z,100645.50
2023-04-28T17:40:24.138Z,100644.47
2023-04-28T17:43:26.781Z,100633.84
2023-04-28T17:46:29.274Z,100644.22
2023-04-28T17:49:31.638Z,100643.41
2023-04-28T17:52:34.169Z,100637.94
2023-04-28T17:55:36.505Z,100635.53
2023-04-28T17:58:39.001Z,100643.44
2023-04-28T18:01:41.687Z,100634.44
2023-04-28T18:04:44.170Z,100644.81
2023-04-28T18:07:47.234Z,100638.81
2023-04-28T18:10:49.855Z,100641.50
2023-04-28T18:13:52.488Z,100642.84
2023-04-28T18:16:54.806Z,100642.03
2023-04-28T18:19:57.934Z,100641.72
2023-04-28T18:23:00.283Z,100644.44
2023-04-28T18:26:03.060Z,100641.34
2023-04-28T18:29:05.735Z,100637.81
2023-04-28T18:32:08.395Z,100635.59
2023-04-28T18:35:11.094Z,100650.81
2023-04-28T18:38:15.149Z,100639.38
2023-04-28T18:41:18.961Z,100644.78
2023-04-28T18:44:21.695Z,100646.97
2023-04-28T18:47:24.292Z,100649.41
2023-04-28T18:50:27.235Z,100637.63
2023-04-28T18:53:30.626Z,100640.59
2023-04-28T18:56:33.451Z,100646.84
2023-04-28T18:59:35.749Z,100653.88
2023-04-28T19:02:38.343Z,100655.25
2023-04-28T19:05:43.637Z,100653.84
2023-04-28T19:08:46.307Z,100625.00
2023-04-28T19:11:49.208Z,100646.28
2023-04-28T19:14:55.610Z,100644.63
2023-04-28T19:17:58.548Z,100656.66
2023-04-28T19:21:05.499Z,100647.63
2023-04-28T19:24:07.939Z,100650.34
2023-04-28T19:27:10.204Z,100650.84
2023-04-28T19:30:14.438Z,100645.66
2023-04-28T19:33:17.764Z,100648.13
2023-04-28T19:36:20.210Z,100645.66
2023-04-28T19:39:22.952Z,100644.44
2023-04-28T19:42:25.647Z,100645.13
2023-04-28T19:45:28.324Z,100647.81
2023-04-28T19:48:30.737Z,100642.63
2023-04-28T19:51:33.209Z,100638.47
2023-04-28T19:54:38.859Z,100655.25
2023-04-28T19:57:41.850Z,100653.84
2023-04-28T20:00:45.778Z,100642.63
2023-04-28T20:03:48.372Z,100644.50
2023-04-28T20:06:50.838Z,100654.78
2023-04-28T20:09:53.297Z,100652.31
2023-04-28T20:12:55.666Z,100641.66
2023-04-28T20:15:58.073Z,100652.31
2023-04-28T20:19:00.588Z,100645.44
2023-04-28T20:22:07.449Z,100642.38
2023-04-28T20:25:11.019Z,100641.16
2023-04-28T20:28:13.452Z,100640.31
2023-04-28T20:31:15.988Z,100631.34
2023-04-28T20:34:18.498Z,100638.09
2023-04-28T20:37:23.868Z,100636.44
2023-04-28T20:40:26.599Z,100631.41
2023-04-28T20:43:29.306Z,100615.69
2023-04-28T20:46:33.205Z,100629.16
2023-04-28T20:49:36.637Z,100626.72
2023-04-28T20:52:39.391Z,100627.09
2023-04-28T20:55:41.960Z,100622.22
2023-04-28T20:58:44.414Z,100630.34
2023-04-28T21:01:46.880Z,100628.44
2023-04-28T21:04:49.345Z,100629.16
2023-04-28T21:07:51.768Z,100625.09
2023-04-28T21:10:55.435Z,100620.53
2023-04-28T21:13:58.637Z,100624.50
2023-04-28T21:17:03.699Z,100601.84
2023-04-28T21:20:06.989Z,100620.25
2023-04-28T21:23:10.051Z,100610.97
2023-04-28T21:26:12.968Z,100616.31
2023-04-28T21:29:15.716Z,100606.00
2023-04-28T21:32:18.135Z,100612.50
2023-04-28T21:35:21.036Z,100604.41
2023-04-28T21:38:23.665Z,100600.47
2023-04-28T21:41:26.188Z,100596.28
2023-04-28T21:44:28.564Z,100602.84
2023-04-28T21:47:31.054Z,100588.91
2023-04-28T21:50:33.842Z,100601.97
2023-04-28T21:53:36.667Z,100594.94
2023-04-28T21:56:39.111Z,100592.25
2023-04-28T21:59:41.482Z,100590.94
2023-04-28T22:02:44.123Z,100580.59
2023-04-28T22:05:46.851Z,100588.84
2023-04-28T22:08:49.337Z,100589.03
2023-04-28T22:11:52.088Z,100583.25
2023-04-28T22:14:54.592Z,100582.66
2023-04-28T22:17:58.342Z,100574.94
2023-04-28T22:21:01.247Z,100575.50
2023-04-28T22:24:07.618Z,100571.66
2023-04-28T22:27:10.329Z,100577.06
2023-04-28T22:30:13.178Z,100571.34
2023-04-28T22:33:15.837Z,100548.44
2023-04-28T22:36:18.392Z,100570.16
2023-04-28T22:39:20.818Z,100559.28
2023-04-28T22:42:23.750Z,100560.31
2023-04-28T22:45:26.293Z,100557.78
2023-04-28T22:48:28.630Z,100548.34
2023-04-28T22:51:31.667Z,100558.38
2023-04-28T22:54:34.527Z,100556.78
2023-04-28T22:57:39.778Z,100553.22
2023-04-28T23:00:42.891Z,100545.81
2023-04-28T23:03:45.411Z,100543.66
2023-04-28T23:06:48.220Z,100540.94
2023-04-28T23:09:51.376Z,100537.75
2023-04-28T23:12:54.121Z,100528.81
2023-04-28T23:16:00.748Z,100528.72
2023-04-28T23:19:03.382Z,100522.22
2023-04-28T23:22:09.332Z,100517.88
2023-04-28T23:25:11.689Z,100515.72
2023-04-28T23:28:14.095Z,100505.31
2023-04-28T23:31:16.717Z,100500.09
2023-04-28T23:34:19.451Z,100494.38
2023-04-28T23:37:22.067Z,100482.66
2023-04-28T23:40:24.870Z,100488.09
2023-04-28T23:43:27.913Z,100487.44
2023-04-28T23:46:31.006Z,100482.06
2023-04-28T23:49:33.926Z,100482.88
2023-04-28T23:52:40.474Z,100482.16
2023-04-28T23:55:42.907Z,100475.25
2023-04-28T23:58:45.279Z,100463.34
